Terminal Aerodrome Forecast
Issued by NWS Blacksburg, VA

Home | Current Version | Previous Version | Text Only | Print | Product List | Glossary On
Versions: 1 2 3 4 5 6 7 8 9 10 11 12 13 14 15
000
FTUS41 KRNK 301721
TAFLYH
TAF
KLYH 301721Z 3018/3118 VRB03KT P6SM VCSH SCT035 BKN080
     FM302200 08004KT P6SM VCTS BKN035CB
     FM310200 00000KT P6SM SCT040 OVC100
     FM310600 00000KT 1 1/2SM BR BKN004
     FM311500 02003KT P6SM SCT025 BKN100=

USA.gov is the U.S. government's official web portal to all federal, state and local government web resources and services.